Etusivu
METAR-TAF:

METAR-TAF

Lentoasemat :

Lawrence J. Timmerman Airport

Milwaukee, Wisconsin, Yhdysvallat

Leveyspiiri: 43-07N, Pituuspiiri: 088-02W, korkeus merenpinnasta: 227 m

Tämänhetkinen sää

Tämä raportti tehtiin 8 minuuttia sitten, kello 10.15 UTC
Tuuli 18 kn lännestä puuskistuen 23 kn:hen
Lämpötila 1°C
Kosteus 80%
Ilmanpaine 1010 hPa
Näkyvyys: 16.1 km
Pilvistä 1500 ft:n korkeudessa

METAR: KMWC 181015Z AUTO 28018G23KT 10SM OVC015 01/M02 A2982 RMK AO2

Aika: 04:23 (10:23 UTC)


TAF: puuttuu

Säähavainnot ja -ennusteet yli 4000 lentoasemalta (METAR- ja TAF-raportit).

Käytössä olevat sääasemat on merkitty karttaan keltaisilla ja punaisilla pisteillä.

Aseta hiiri pisteen päälle nähdäksesi sääaseman nimen.

Klikkaa sitten nähdäksesi säähavainnot ja -ennusteet.

Kartan vaihtaminen: klikkaa mustalla rastilla varustettuja vihreitä pisteitä, niin voit zoomata sisään; viivalla varustettua vihreää pistettä, niin voit zoomata ulos tai vihreitä nuolia, niin pääset viereisille kartoille.


METAR-TAF: